Terminal Aerodrome Forecast
Issued by NWS

Home | Current Version | Previous Version | Text Only | Print | Product List | Glossary On
Versions: 1 2 3 4 5 6 7 8 9 10 11 12 13
000
FTUS41 KBGM 162320
TAFELM
TAF
KELM 162320Z 1700/1724 VRB03KT 2SM -SN OVC035
      TEMPO 1702/1706 1SM -SN OVC025
     FM171000 28005KT P6SM OVC025
     FM171500 29010KT P6SM BKN050=

USA.gov is the U.S. government's official web portal to all federal, state and local government web resources and services.